createdAt,value
2018-12-29T00:04:16.560Z,1.10
2018-12-29T00:06:57.935Z,1.10
2018-12-29T00:09:39.018Z,1.20
2018-12-29T00:12:20.167Z,1.20
2018-12-29T00:15:01.788Z,1.00
2018-12-29T00:17:42.942Z,1.10
2018-12-29T00:20:23.351Z,1.10
2018-12-29T00:23:04.700Z,1.20
2018-12-29T00:25:46.139Z,1.20
2018-12-29T00:28:27.560Z,1.30
2018-12-29T00:31:09.373Z,1.30
2018-12-29T00:33:50.604Z,1.30
2018-12-29T00:36:31.827Z,1.30
2018-12-29T00:39:13.394Z,1.20
2018-12-29T00:41:55.157Z,1.20
2018-12-29T00:44:36.237Z,1.10
2018-12-29T00:47:17.599Z,1.00
2018-12-29T00:49:58.744Z,1.00
2018-12-29T00:52:39.730Z,1.00
2018-12-29T00:55:21.576Z,1.10
2018-12-29T00:58:03.568Z,1.10
2018-12-29T01:00:45.033Z,1.20
2018-12-29T01:03:25.736Z,1.10
2018-12-29T01:08:53.158Z,1.20
2018-12-29T01:11:34.682Z,1.20
2018-12-29T01:14:15.427Z,1.30
2018-12-29T01:16:56.123Z,1.20
2018-12-29T01:19:37.287Z,1.20
2018-12-29T01:22:18.510Z,1.10
2018-12-29T01:24:59.740Z,1.20
2018-12-29T01:30:23.328Z,1.30
2018-12-29T01:33:04.747Z,1.30
2018-12-29T01:35:45.688Z,1.30
2018-12-29T01:38:27.420Z,1.30
2018-12-29T01:41:08.491Z,1.40
2018-12-29T01:43:49.747Z,1.40
2018-12-29T01:46:30.889Z,1.40
2018-12-29T01:49:12.081Z,1.50
2018-12-29T01:51:53.495Z,1.40
2018-12-29T01:54:35.205Z,1.40
2018-12-29T01:57:16.199Z,1.40
2018-12-29T01:59:57.892Z,1.40
2018-12-29T02:02:39.290Z,1.40
2018-12-29T02:05:20.825Z,1.50
2018-12-29T02:08:02.061Z,1.50
2018-12-29T02:10:43.295Z,1.50
2018-12-29T02:13:24.121Z,1.50
2018-12-29T02:16:04.905Z,1.50
2018-12-29T02:18:45.971Z,1.50
2018-12-29T02:21:27.326Z,1.50
2018-12-29T02:24:09.005Z,1.50
2018-12-29T02:26:50.301Z,1.40
2018-12-29T02:29:31.720Z,1.30
2018-12-29T02:32:12.280Z,1.30
2018-12-29T02:34:53.201Z,1.20
2018-12-29T02:37:34.641Z,1.30
2018-12-29T02:40:15.816Z,1.30
2018-12-29T02:42:56.832Z,1.30
2018-12-29T02:45:38.094Z,1.30
2018-12-29T02:48:19.351Z,1.40
2018-12-29T02:51:00.435Z,1.50
2018-12-29T02:56:25.463Z,1.40
2018-12-29T02:59:06.523Z,1.40
2018-12-29T03:01:47.644Z,1.50
2018-12-29T03:04:29.452Z,1.50
2018-12-29T03:07:11.153Z,1.50
2018-12-29T03:09:52.742Z,1.50
2018-12-29T03:12:33.769Z,1.50
2018-12-29T03:15:14.509Z,1.50
2018-12-29T03:17:55.392Z,1.40
2018-12-29T03:20:36.778Z,1.30
2018-12-29T03:23:17.933Z,1.30
2018-12-29T03:28:41.720Z,1.30
2018-12-29T03:31:23.235Z,1.30
2018-12-29T03:33:53.038Z,1.30
2018-12-29T03:36:22.739Z,1.20
2018-12-29T03:39:11.531Z,1.10
2018-12-29T03:42:00.567Z,1.10
2018-12-29T03:44:49.340Z,1.00
2018-12-29T03:47:37.847Z,1.10
2018-12-29T03:50:26.636Z,1.00
2018-12-29T03:53:15.399Z,1.00
2018-12-29T03:56:04.228Z,0.90
2018-12-29T03:58:53.259Z,1.00
2018-12-29T04:01:42.545Z,0.90
2018-12-29T04:04:23.841Z,0.90
2018-12-29T04:07:04.794Z,0.90
2018-12-29T04:21:23.176Z,1.20
2018-12-29T04:24:04.612Z,1.20
2018-12-29T04:26:45.646Z,1.30
2018-12-29T04:29:27.540Z,1.30
2018-12-29T04:32:08.798Z,1.10
2018-12-29T04:34:50.668Z,1.20
2018-12-29T04:37:32.396Z,1.20
2018-12-29T04:40:13.421Z,1.30
2018-12-29T04:42:43.387Z,1.30
2018-12-29T04:48:34.121Z,1.20
2018-12-29T04:51:23.180Z,1.20
2018-12-29T04:54:12.024Z,1.10
2018-12-29T04:57:01.191Z,1.10
2018-12-29T04:59:49.985Z,1.10
2018-12-29T05:08:15.664Z,1.30
2018-12-29T05:10:45.895Z,1.20
2018-12-29T05:13:34.935Z,1.20
2018-12-29T05:16:24.229Z,1.20
2018-12-29T05:22:04.642Z,1.20
2018-12-29T05:30:23.933Z,1.10
2018-12-29T05:33:04.820Z,1.10
2018-12-29T05:35:46.444Z,1.10
2018-12-29T05:38:27.657Z,1.20
2018-12-29T05:47:19.572Z,1.60
2018-12-29T05:50:00.330Z,1.40
2018-12-29T05:52:42.757Z,1.30
2018-12-29T05:55:23.972Z,1.20
2018-12-29T05:58:05.101Z,1.10
2018-12-29T06:00:46.777Z,1.10
2018-12-29T06:03:28.487Z,1.10
2018-12-29T06:06:09.547Z,1.20
2018-12-29T06:08:50.745Z,1.20
2018-12-29T06:11:32.199Z,1.20
2018-12-29T06:14:13.933Z,1.20
2018-12-29T06:16:55.098Z,1.30
2018-12-29T06:19:36.612Z,1.30
2018-12-29T06:22:18.178Z,1.30
2018-12-29T06:24:59.182Z,1.30
2018-12-29T06:27:40.959Z,1.30
2018-12-29T06:30:21.612Z,1.20
2018-12-29T06:33:02.952Z,1.30
2018-12-29T06:35:44.090Z,1.30
2018-12-29T06:38:24.814Z,1.30
2018-12-29T06:41:06.432Z,1.30
2018-12-29T06:43:47.559Z,1.40
2018-12-29T06:46:17.891Z,1.50
2018-12-29T06:49:25.642Z,1.50
2018-12-29T06:52:14.543Z,1.50
2018-12-29T06:55:03.333Z,1.50
2018-12-29T06:57:52.382Z,1.40
2018-12-29T07:00:40.827Z,1.40
2018-12-29T07:03:29.684Z,1.40
2018-12-29T07:06:18.203Z,1.40
2018-12-29T07:09:07.118Z,1.40
2018-12-29T07:11:56.300Z,1.30
2018-12-29T07:14:37.315Z,1.30
2018-12-29T07:17:18.297Z,1.30
2018-12-29T07:19:59.812Z,1.30
2018-12-29T07:22:41.078Z,1.30
2018-12-29T07:25:22.975Z,1.30
2018-12-29T07:28:04.619Z,1.30
2018-12-29T07:30:45.824Z,1.40
2018-12-29T07:33:27.248Z,1.40
2018-12-29T07:36:08.342Z,1.50
2018-12-29T07:38:49.580Z,1.50
2018-12-29T07:41:31.079Z,1.50
2018-12-29T07:44:12.062Z,1.50
2018-12-29T07:46:53.409Z,1.60
2018-12-29T07:49:34.602Z,1.60
2018-12-29T07:52:15.685Z,1.60
2018-12-29T07:54:56.355Z,1.60
2018-12-29T07:57:37.799Z,1.60
2018-12-29T08:00:19.083Z,1.70
2018-12-29T08:03:00.914Z,1.60
2018-12-29T08:08:40.811Z,1.70
2018-12-29T08:11:22.136Z,1.70
2018-12-29T08:14:03.151Z,1.70
2018-12-29T08:16:45.124Z,1.70
2018-12-29T08:19:26.363Z,1.80
2018-12-29T08:22:07.792Z,1.90
2018-12-29T08:24:49.470Z,1.90
2018-12-29T08:27:30.456Z,1.90
2018-12-29T08:30:12.341Z,2.00
2018-12-29T08:32:53.465Z,1.90
2018-12-29T08:35:34.707Z,2.00
2018-12-29T08:38:15.742Z,2.00
2018-12-29T08:40:57.758Z,2.00
2018-12-29T08:43:38.555Z,2.00
2018-12-29T08:46:20.050Z,2.00
2018-12-29T08:49:00.941Z,2.10
2018-12-29T08:51:41.904Z,2.10
2018-12-29T08:54:23.359Z,2.20
2018-12-29T08:57:04.739Z,2.30
2018-12-29T08:59:46.028Z,2.20
2018-12-29T09:02:27.698Z,2.30
2018-12-29T09:05:09.095Z,2.20
2018-12-29T09:07:50.014Z,2.30
2018-12-29T09:10:31.419Z,2.30
2018-12-29T09:13:12.822Z,2.30
2018-12-29T09:15:53.883Z,2.30
2018-12-29T09:18:34.586Z,2.40
2018-12-29T09:21:15.807Z,2.40
2018-12-29T09:23:57.464Z,2.40
2018-12-29T09:26:38.800Z,2.20
2018-12-29T09:29:20.900Z,2.20
2018-12-29T09:32:02.404Z,2.30
2018-12-29T09:34:43.937Z,2.20
2018-12-29T09:37:25.371Z,2.20
2018-12-29T09:40:06.679Z,2.20
2018-12-29T09:42:48.339Z,2.20
2018-12-29T09:45:30.061Z,2.30
2018-12-29T09:48:10.936Z,2.30
2018-12-29T09:50:51.860Z,2.30
2018-12-29T09:53:32.571Z,2.20
2018-12-29T09:56:13.683Z,2.30
2018-12-29T09:58:54.639Z,2.30
2018-12-29T10:01:36.200Z,2.30
2018-12-29T10:04:17.375Z,2.40
2018-12-29T10:06:58.740Z,2.30
2018-12-29T10:09:40.753Z,2.40
2018-12-29T10:12:22.744Z,2.50
2018-12-29T10:15:04.025Z,2.40
2018-12-29T10:17:45.404Z,2.40
2018-12-29T10:20:25.359Z,2.40
2018-12-29T10:23:13.696Z,2.40
2018-12-29T10:26:02.137Z,2.50
2018-12-29T10:28:50.878Z,2.40
2018-12-29T10:31:39.611Z,2.50
2018-12-29T10:34:28.814Z,2.40
2018-12-29T10:37:17.958Z,2.50
2018-12-29T10:39:58.979Z,2.40
2018-12-29T10:42:39.784Z,2.40
2018-12-29T10:45:20.459Z,2.40
2018-12-29T10:48:02.184Z,2.40
2018-12-29T10:50:43.585Z,2.40
2018-12-29T10:53:25.147Z,2.30
2018-12-29T10:56:06.976Z,2.40
2018-12-29T10:58:48.612Z,2.40
2018-12-29T11:01:30.341Z,2.30
2018-12-29T11:04:11.767Z,2.40
2018-12-29T11:06:53.315Z,2.40
2018-12-29T11:09:34.649Z,2.40
2018-12-29T11:12:15.859Z,2.40
2018-12-29T11:14:56.980Z,2.40
2018-12-29T11:17:42.119Z,2.50
2018-12-29T11:20:21.421Z,2.50
2018-12-29T11:23:03.247Z,2.50
2018-12-29T11:25:44.252Z,2.50
2018-12-29T11:28:25.959Z,2.50
2018-12-29T11:31:07.015Z,2.50
2018-12-29T11:33:48.308Z,2.60
2018-12-29T11:36:31.862Z,2.60
2018-12-29T11:39:13.231Z,2.60
2018-12-29T11:41:54.296Z,2.60
2018-12-29T11:44:36.182Z,2.70
2018-12-29T11:47:17.775Z,2.70
2018-12-29T11:49:58.847Z,2.70
2018-12-29T11:52:40.132Z,2.70
2018-12-29T11:55:21.931Z,2.90
2018-12-29T11:58:03.288Z,2.80
2018-12-29T12:00:44.904Z,2.80
2018-12-29T12:03:26.653Z,2.80
2018-12-29T12:06:07.894Z,2.70
2018-12-29T12:08:48.708Z,2.60
2018-12-29T12:11:29.436Z,2.60
2018-12-29T12:14:11.115Z,2.70
2018-12-29T12:16:52.368Z,2.70
2018-12-29T12:19:34.115Z,2.70
2018-12-29T12:22:15.827Z,2.60
2018-12-29T12:24:57.716Z,2.60
2018-12-29T12:27:38.523Z,2.50
2018-12-29T12:30:20.557Z,2.60
2018-12-29T12:33:02.257Z,2.60
2018-12-29T12:35:43.929Z,2.60
2018-12-29T12:38:25.539Z,2.60
2018-12-29T12:41:06.944Z,2.60
2018-12-29T12:43:48.185Z,2.80
2018-12-29T12:46:30.195Z,2.80
2018-12-29T12:49:11.519Z,2.90
2018-12-29T12:51:52.692Z,2.80
2018-12-29T12:54:34.386Z,3.00
2018-12-29T12:57:15.964Z,3.10
2018-12-29T12:59:58.358Z,3.00
2018-12-29T13:02:39.468Z,2.90
2018-12-29T13:05:20.736Z,2.90
2018-12-29T13:08:01.903Z,2.90
2018-12-29T13:10:32.393Z,3.10
2018-12-29T13:13:21.527Z,3.00
2018-12-29T13:16:10.480Z,3.00
2018-12-29T13:18:59.557Z,3.10
2018-12-29T13:21:48.855Z,3.10
2018-12-29T13:24:37.279Z,3.00
2018-12-29T13:27:26.198Z,2.90
2018-12-29T13:30:15.401Z,2.90
2018-12-29T13:33:04.216Z,2.90
2018-12-29T13:35:53.032Z,2.90
2018-12-29T13:38:42.176Z,2.90
2018-12-29T13:41:31.607Z,2.90
2018-12-29T13:44:20.407Z,3.00
2018-12-29T13:47:09.356Z,3.10
2018-12-29T13:49:58.822Z,3.20
2018-12-29T13:52:48.597Z,3.20
2018-12-29T13:55:59.873Z,3.00
2018-12-29T14:01:36.756Z,3.00
2018-12-29T14:04:07.389Z,3.10
2018-12-29T14:06:37.258Z,3.30
2018-12-29T14:09:26.319Z,3.30
2018-12-29T14:12:15.419Z,3.40
2018-12-29T14:15:04.475Z,3.40
2018-12-29T14:17:53.689Z,3.30
2018-12-29T14:20:42.868Z,3.40
2018-12-29T14:23:31.426Z,3.30
2018-12-29T14:26:20.192Z,3.40
2018-12-29T14:29:08.636Z,3.50
2018-12-29T14:31:57.438Z,3.50
2018-12-29T14:34:46.304Z,3.40
2018-12-29T14:37:35.078Z,3.50
2018-12-29T14:40:16.307Z,3.40
2018-12-29T14:42:57.576Z,3.40
2018-12-29T14:45:38.903Z,3.40
2018-12-29T14:48:20.408Z,3.40
2018-12-29T14:51:02.118Z,3.30
2018-12-29T14:53:43.234Z,3.30
2018-12-29T14:59:07.775Z,3.20
2018-12-29T15:01:49.163Z,3.20
2018-12-29T15:04:31.435Z,3.30
2018-12-29T15:07:13.495Z,3.20
2018-12-29T15:09:54.808Z,3.20
2018-12-29T15:12:36.288Z,3.20
2018-12-29T15:15:18.100Z,3.10
2018-12-29T15:17:59.751Z,3.10
2018-12-29T15:20:41.076Z,3.10
2018-12-29T15:23:21.784Z,3.00
2018-12-29T15:26:03.298Z,3.00
2018-12-29T15:28:44.884Z,3.00
2018-12-29T15:31:26.761Z,3.10
2018-12-29T15:34:08.459Z,3.00
2018-12-29T15:36:50.643Z,2.90
2018-12-29T15:39:32.160Z,2.90
2018-12-29T15:42:14.106Z,2.90
2018-12-29T15:44:55.427Z,2.80
2018-12-29T15:47:36.754Z,2.80
2018-12-29T15:50:17.529Z,2.90
2018-12-29T15:52:58.604Z,2.90
2018-12-29T15:55:40.383Z,2.90
2018-12-29T15:58:21.787Z,2.80
2018-12-29T16:01:03.155Z,2.90
2018-12-29T16:03:43.848Z,2.90
2018-12-29T16:06:24.816Z,2.80
2018-12-29T16:09:06.617Z,2.90
2018-12-29T16:11:48.245Z,2.90
2018-12-29T16:14:35.351Z,2.90
2018-12-29T16:17:12.862Z,3.00
2018-12-29T16:19:54.197Z,3.20
2018-12-29T16:22:36.234Z,3.10
2018-12-29T16:25:17.716Z,3.20
2018-12-29T16:27:59.034Z,3.20
2018-12-29T16:30:41.231Z,3.10
2018-12-29T16:33:23.088Z,3.20
2018-12-29T16:36:04.796Z,3.20
2018-12-29T16:38:46.297Z,3.20
2018-12-29T16:41:28.188Z,3.10
2018-12-29T16:44:09.601Z,3.00
2018-12-29T16:46:50.707Z,3.00
2018-12-29T16:55:45.786Z,3.20
2018-12-29T17:01:40.133Z,3.00
2018-12-29T17:04:21.998Z,2.90
2018-12-29T17:07:03.164Z,2.90
2018-12-29T17:09:44.855Z,2.90
2018-12-29T17:12:26.226Z,2.90
2018-12-29T17:15:07.266Z,2.90
2018-12-29T17:20:50.875Z,2.90
2018-12-29T17:23:33.204Z,2.90
2018-12-29T17:26:04.016Z,2.90
2018-12-29T17:28:54.807Z,2.80
2018-12-29T17:31:44.567Z,2.90
2018-12-29T17:34:34.287Z,2.90
2018-12-29T17:37:24.053Z,2.90
2018-12-29T17:40:14.291Z,2.90
2018-12-29T17:43:04.487Z,2.90
2018-12-29T17:45:53.772Z,2.80
2018-12-29T17:48:42.776Z,2.90
2018-12-29T17:51:24.697Z,3.00
2018-12-29T17:54:06.656Z,3.00
2018-12-29T17:56:36.639Z,3.00
2018-12-29T17:59:27.507Z,3.00
2018-12-29T18:02:16.371Z,3.00
2018-12-29T18:05:05.581Z,3.00
2018-12-29T18:07:54.249Z,3.00
2018-12-29T18:10:43.888Z,3.00
2018-12-29T18:13:33.636Z,3.00
2018-12-29T18:16:15.268Z,3.00
2018-12-29T18:18:56.251Z,3.00
2018-12-29T18:21:37.819Z,3.10
2018-12-29T18:24:19.325Z,3.20
2018-12-29T18:27:00.836Z,3.20
2018-12-29T18:29:42.637Z,3.20
2018-12-29T18:32:24.204Z,3.20
2018-12-29T18:35:05.689Z,3.20
2018-12-29T18:37:47.104Z,3.10
2018-12-29T18:40:28.659Z,3.20
2018-12-29T18:43:09.089Z,3.10
2018-12-29T18:45:39.214Z,3.10
2018-12-29T18:48:28.588Z,3.20
2018-12-29T18:51:17.552Z,3.20
2018-12-29T18:54:07.895Z,3.20
2018-12-29T18:56:56.720Z,3.20
2018-12-29T18:59:45.914Z,3.20
2018-12-29T19:02:16.104Z,3.20
2018-12-29T19:05:04.970Z,3.30
2018-12-29T19:07:54.399Z,3.20
2018-12-29T19:10:43.894Z,3.10
2018-12-29T19:13:33.711Z,3.00
2018-12-29T19:16:16.968Z,3.00
2018-12-29T19:18:58.200Z,2.90
2018-12-29T19:21:39.724Z,2.80
2018-12-29T19:27:04.640Z,2.70
2018-12-29T19:29:45.952Z,2.80
2018-12-29T19:32:28.973Z,2.70
2018-12-29T19:35:11.453Z,2.60
2018-12-29T19:37:52.736Z,2.60
2018-12-29T19:40:34.525Z,2.50
2018-12-29T19:43:15.949Z,2.50
2018-12-29T19:45:58.164Z,2.40
2018-12-29T19:48:40.326Z,2.40
2018-12-29T19:51:22.709Z,2.50
2018-12-29T19:54:03.713Z,2.40
2018-12-29T19:56:44.968Z,2.50
2018-12-29T19:59:25.979Z,2.50
2018-12-29T20:02:07.304Z,2.50
2018-12-29T20:04:49.166Z,2.40
2018-12-29T20:07:31.239Z,2.40
2018-12-29T20:10:13.172Z,2.40
2018-12-29T20:12:54.634Z,2.50
2018-12-29T20:15:35.545Z,2.60
2018-12-29T20:18:16.766Z,2.50
2018-12-29T20:20:57.702Z,2.50
2018-12-29T20:23:38.973Z,2.50
2018-12-29T20:26:20.704Z,2.60
2018-12-29T20:29:02.266Z,2.70
2018-12-29T20:31:44.364Z,2.70
2018-12-29T20:34:26.020Z,2.70
2018-12-29T20:37:07.583Z,2.70
2018-12-29T20:39:49.308Z,2.70
2018-12-29T20:42:30.353Z,2.70
2018-12-29T20:45:12.399Z,2.80
2018-12-29T20:47:54.121Z,2.80
2018-12-29T20:50:34.804Z,2.80
2018-12-29T20:53:15.650Z,2.80
2018-12-29T20:55:57.001Z,2.80
2018-12-29T20:58:38.260Z,2.90
2018-12-29T21:01:19.538Z,2.90
2018-12-29T21:04:00.709Z,2.90
2018-12-29T21:06:41.771Z,2.90
2018-12-29T21:09:23.360Z,2.90
2018-12-29T21:12:04.546Z,2.80
2018-12-29T21:14:45.943Z,2.80
2018-12-29T21:17:26.996Z,2.80
2018-12-29T21:20:09.059Z,2.80
2018-12-29T21:22:50.708Z,2.80
2018-12-29T21:25:32.627Z,2.80
2018-12-29T21:28:13.556Z,2.70
2018-12-29T21:30:56.060Z,2.80
2018-12-29T21:33:37.458Z,2.60
2018-12-29T21:36:18.965Z,2.70
2018-12-29T21:39:00.667Z,2.60
2018-12-29T21:41:42.369Z,2.50
2018-12-29T21:44:24.147Z,2.50
2018-12-29T21:47:05.788Z,2.50
2018-12-29T21:49:47.324Z,2.50
2018-12-29T21:52:28.651Z,2.50
2018-12-29T21:54:58.149Z,2.50
2018-12-29T21:57:49.160Z,2.50
2018-12-29T22:00:38.030Z,2.50
2018-12-29T22:03:29.066Z,2.40
2018-12-29T22:06:18.473Z,2.50
2018-12-29T22:09:09.079Z,2.50
2018-12-29T22:11:58.466Z,2.50
2018-12-29T22:14:47.569Z,2.50
2018-12-29T22:17:18.063Z,2.50
2018-12-29T22:19:48.164Z,2.50
2018-12-29T22:22:36.934Z,2.50
2018-12-29T22:25:25.435Z,2.50
2018-12-29T22:28:14.407Z,2.50
2018-12-29T22:30:55.844Z,2.60
2018-12-29T22:33:37.577Z,2.50
2018-12-29T22:39:02.785Z,2.60
2018-12-29T22:41:44.142Z,2.60
2018-12-29T22:44:25.108Z,2.60
2018-12-29T22:47:06.861Z,2.60
2018-12-29T22:49:48.596Z,2.50
2018-12-29T22:52:29.809Z,2.60
2018-12-29T22:55:10.902Z,2.60
2018-12-29T22:57:52.781Z,2.70
2018-12-29T23:00:52.752Z,2.70
2018-12-29T23:03:33.777Z,2.60
2018-12-29T23:06:15.046Z,2.60
2018-12-29T23:08:56.692Z,2.60
2018-12-29T23:11:37.859Z,2.60
2018-12-29T23:14:19.156Z,2.70
2018-12-29T23:16:49.186Z,2.70
2018-12-29T23:19:37.733Z,2.70
2018-12-29T23:22:26.527Z,2.70
2018-12-29T23:25:15.723Z,2.80
2018-12-29T23:28:04.672Z,2.80
2018-12-29T23:30:52.922Z,2.90
2018-12-29T23:33:41.921Z,2.90
2018-12-29T23:36:31.199Z,2.90
2018-12-29T23:39:20.736Z,2.90
2018-12-29T23:42:11.304Z,2.90
2018-12-29T23:44:53.291Z,2.90
2018-12-29T23:47:34.820Z,2.90
2018-12-29T23:50:16.793Z,2.90
2018-12-29T23:52:58.199Z,2.90
2018-12-29T23:55:39.650Z,2.90
2018-12-29T23:58:21.229Z,2.90
